sensor_id;sensor_type;location;lat;lon;timestamp;P1;durP1;ratioP1;P2;durP2;ratioP2
55692;SDS011;41590;53.366;5.212;2023-05-10T04:58:35;17.55;;;6.53;;
55692;SDS011;41590;53.366;5.212;2023-05-10T05:01:19;21.38;;;7.15;;
55692;SDS011;41590;53.366;5.212;2023-05-10T05:24:22;21.58;;;4.22;;
55692;SDS011;41590;53.366;5.212;2023-05-10T05:30:40;28.13;;;4.90;;
55692;SDS011;41590;53.366;5.212;2023-05-10T05:33:14;22.20;;;5.10;;
55692;SDS011;41590;53.366;5.212;2023-05-10T05:35:47;22.92;;;4.53;;
55692;SDS011;41590;53.366;5.212;2023-05-10T05:41:23;33.28;;;6.38;;
55692;SDS011;41590;53.366;5.212;2023-05-10T05:43:57;32.17;;;7.18;;
55692;SDS011;41590;53.366;5.212;2023-05-10T05:46:43;24.20;;;7.22;;
55692;SDS011;41590;53.366;5.212;2023-05-10T05:52:09;24.15;;;6.32;;
55692;SDS011;41590;53.366;5.212;2023-05-10T06:00:47;17.70;;;4.72;;
55692;SDS011;41590;53.366;5.212;2023-05-10T06:07:02;10.95;;;4.82;;
55692;SDS011;41590;53.366;5.212;2023-05-10T06:09:43;12.80;;;5.05;;
55692;SDS011;41590;53.366;5.212;2023-05-10T06:17:56;7.10;;;5.00;;
55692;SDS011;41590;53.366;5.212;2023-05-10T06:20:50;9.38;;;6.03;;
55692;SDS011;41590;53.366;5.212;2023-05-10T06:32:46;19.98;;;6.55;;
55692;SDS011;41590;53.366;5.212;2023-05-10T06:35:15;13.15;;;6.45;;
55692;SDS011;41590;53.366;5.212;2023-05-10T06:37:43;13.52;;;5.82;;
55692;SDS011;41590;53.366;5.212;2023-05-10T06:40:17;12.68;;;5.82;;
55692;SDS011;41590;53.366;5.212;2023-05-10T06:43:00;36.33;;;7.25;;
55692;SDS011;41590;53.366;5.212;2023-05-10T06:48:53;13.50;;;4.80;;
55692;SDS011;41590;53.366;5.212;2023-05-10T06:51:26;28.13;;;6.50;;
55692;SDS011;41590;53.366;5.212;2023-05-10T06:57:20;26.90;;;8.15;;
55692;SDS011;41590;53.366;5.212;2023-05-10T06:59:48;25.83;;;8.70;;
55692;SDS011;41590;53.366;5.212;2023-05-10T07:02:26;22.70;;;8.10;;
55692;SDS011;41590;53.366;5.212;2023-05-10T07:05:10;13.82;;;7.97;;
55692;SDS011;41590;53.366;5.212;2023-05-10T07:07:44;10.18;;;6.32;;
55692;SDS011;41590;53.366;5.212;2023-05-10T07:10:12;9.70;;;6.22;;
55692;SDS011;41590;53.366;5.212;2023-05-10T07:12:41;12.68;;;6.47;;
55692;SDS011;41590;53.366;5.212;2023-05-10T07:21:01;7.70;;;5.10;;
55692;SDS011;41590;53.366;5.212;2023-05-10T07:23:29;7.55;;;5.57;;
55692;SDS011;41590;53.366;5.212;2023-05-10T07:25:55;8.82;;;6.13;;
55692;SDS011;41590;53.366;5.212;2023-05-10T07:31:26;7.70;;;5.10;;
55692;SDS011;41590;53.366;5.212;2023-05-10T07:50:48;5.57;;;4.80;;
55692;SDS011;41590;53.366;5.212;2023-05-10T07:56:37;6.13;;;3.70;;
55692;SDS011;41590;53.366;5.212;2023-05-10T07:59:07;6.65;;;4.82;;
55692;SDS011;41590;53.366;5.212;2023-05-10T08:01:39;4.72;;;4.25;;
55692;SDS011;41590;53.366;5.212;2023-05-10T08:04:14;6.07;;;4.60;;
55692;SDS011;41590;53.366;5.212;2023-05-10T08:09:53;7.78;;;5.47;;
55692;SDS011;41590;53.366;5.212;2023-05-10T08:13:08;7.20;;;5.65;;
55692;SDS011;41590;53.366;5.212;2023-05-10T08:15:46;9.63;;;5.93;;
55692;SDS011;41590;53.366;5.212;2023-05-10T08:18:23;15.38;;;9.80;;
55692;SDS011;41590;53.366;5.212;2023-05-10T08:24:22;17.15;;;9.45;;
55692;SDS011;41590;53.366;5.212;2023-05-10T08:37:51;9.13;;;7.50;;
55692;SDS011;41590;53.366;5.212;2023-05-10T08:51:03;10.90;;;8.15;;
55692;SDS011;41590;53.366;5.212;2023-05-10T08:59:33;13.98;;;10.02;;
55692;SDS011;41590;53.366;5.212;2023-05-10T09:02:06;14.23;;;10.07;;
55692;SDS011;41590;53.366;5.212;2023-05-10T09:05:09;16.02;;;10.80;;
55692;SDS011;41590;53.366;5.212;2023-05-10T09:07:42;17.42;;;12.10;;
55692;SDS011;41590;53.366;5.212;2023-05-10T09:10:09;17.98;;;12.48;;
55692;SDS011;41590;53.366;5.212;2023-05-10T09:12:53;21.52;;;14.77;;
55692;SDS011;41590;53.366;5.212;2023-05-10T09:15:22;23.65;;;14.65;;
55692;SDS011;41590;53.366;5.212;2023-05-10T09:20:41;22.15;;;14.57;;
55692;SDS011;41590;53.366;5.212;2023-05-10T09:23:33;24.13;;;14.98;;
55692;SDS011;41590;53.366;5.212;2023-05-10T09:26:15;22.73;;;15.15;;
55692;SDS011;41590;53.366;5.212;2023-05-10T09:28:58;13.93;;;12.27;;
55692;SDS011;41590;53.366;5.212;2023-05-10T09:40:25;11.70;;;9.85;;
55692;SDS011;41590;53.366;5.212;2023-05-10T09:45:45;12.45;;;9.63;;
55692;SDS011;41590;53.366;5.212;2023-05-10T09:48:32;11.02;;;9.88;;
55692;SDS011;41590;53.366;5.212;2023-05-10T09:51:24;10.05;;;9.05;;
55692;SDS011;41590;53.366;5.212;2023-05-10T09:56:44;11.80;;;10.65;;
55692;SDS011;41590;53.366;5.212;2023-05-10T10:01:52;11.93;;;9.88;;
55692;SDS011;41590;53.366;5.212;2023-05-10T10:04:21;14.77;;;11.73;;
55692;SDS011;41590;53.366;5.212;2023-05-10T10:09:28;15.88;;;12.05;;
55692;SDS011;41590;53.366;5.212;2023-05-10T10:11:58;15.73;;;11.73;;
55692;SDS011;41590;53.366;5.212;2023-05-10T10:20:08;11.73;;;10.05;;
55692;SDS011;41590;53.366;5.212;2023-05-10T10:25:22;10.20;;;9.10;;
55692;SDS011;41590;53.366;5.212;2023-05-10T10:36:06;14.25;;;11.43;;
55692;SDS011;41590;53.366;5.212;2023-05-10T10:38:36;20.35;;;13.65;;
55692;SDS011;41590;53.366;5.212;2023-05-10T10:41:12;17.70;;;13.38;;
55692;SDS011;41590;53.366;5.212;2023-05-10T10:52:42;13.30;;;9.65;;
55692;SDS011;41590;53.366;5.212;2023-05-10T10:55:10;12.80;;;9.68;;
55692;SDS011;41590;53.366;5.212;2023-05-10T10:57:45;15.07;;;10.20;;
55692;SDS011;41590;53.366;5.212;2023-05-10T11:00:29;15.48;;;7.97;;
55692;SDS011;41590;53.366;5.212;2023-05-10T11:03:00;11.60;;;9.45;;
55692;SDS011;41590;53.366;5.212;2023-05-10T11:05:46;10.82;;;9.38;;
55692;SDS011;41590;53.366;5.212;2023-05-10T11:08:35;7.00;;;6.20;;
55692;SDS011;41590;53.366;5.212;2023-05-10T11:11:18;5.78;;;5.10;;
55692;SDS011;41590;53.366;5.212;2023-05-10T11:13:53;5.35;;;4.85;;
55692;SDS011;41590;53.366;5.212;2023-05-10T11:16:27;4.60;;;3.95;;
55692;SDS011;41590;53.366;5.212;2023-05-10T11:19:03;4.25;;;3.92;;
55692;SDS011;41590;53.366;5.212;2023-05-10T11:21:32;4.25;;;3.95;;
55692;SDS011;41590;53.366;5.212;2023-05-10T11:24:09;4.53;;;3.28;;
55692;SDS011;41590;53.366;5.212;2023-05-10T11:26:43;3.70;;;3.40;;
55692;SDS011;41590;53.366;5.212;2023-05-10T11:29:13;4.38;;;4.07;;
55692;SDS011;41590;53.366;5.212;2023-05-10T11:31:53;3.90;;;3.45;;
55692;SDS011;41590;53.366;5.212;2023-05-10T11:34:40;3.03;;;2.83;;
55692;SDS011;41590;53.366;5.212;2023-05-10T11:45:06;1.88;;;1.77;;
55692;SDS011;41590;53.366;5.212;2023-05-10T11:47:48;2.30;;;2.10;;
55692;SDS011;41590;53.366;5.212;2023-05-10T11:55:55;3.88;;;2.55;;
55692;SDS011;41590;53.366;5.212;2023-05-10T11:58:23;2.88;;;1.75;;
55692;SDS011;41590;53.366;5.212;2023-05-10T12:03:44;3.20;;;2.50;;
55692;SDS011;41590;53.366;5.212;2023-05-10T12:18:01;2.20;;;2.05;;
55692;SDS011;41590;53.366;5.212;2023-05-10T12:23:23;2.35;;;2.15;;
55692;SDS011;41590;53.366;5.212;2023-05-10T12:28:26;1.25;;;1.25;;
55692;SDS011;41590;53.366;5.212;2023-05-10T12:31:05;1.63;;;1.52;;
55692;SDS011;41590;53.366;5.212;2023-05-10T12:33:38;1.58;;;1.48;;
55692;SDS011;41590;53.366;5.212;2023-05-10T12:36:07;1.83;;;1.70;;
55692;SDS011;41590;53.366;5.212;2023-05-10T12:38:47;1.85;;;1.63;;
55692;SDS011;41590;53.366;5.212;2023-05-10T12:41:27;1.95;;;1.80;;
55692;SDS011;41590;53.366;5.212;2023-05-10T12:43:53;3.70;;;1.63;;
55692;SDS011;41590;53.366;5.212;2023-05-10T12:46:32;2.42;;;2.22;;
55692;SDS011;41590;53.366;5.212;2023-05-10T12:49:00;2.78;;;2.58;;
55692;SDS011;41590;53.366;5.212;2023-05-10T12:51:26;4.22;;;2.40;;
55692;SDS011;41590;53.366;5.212;2023-05-10T12:56:27;6.38;;;3.38;;
55692;SDS011;41590;53.366;5.212;2023-05-10T13:11:09;3.45;;;3.15;;
55692;SDS011;41590;53.366;5.212;2023-05-10T13:20:07;4.93;;;2.72;;
55692;SDS011;41590;53.366;5.212;2023-05-10T13:25:28;5.80;;;3.03;;
55692;SDS011;41590;53.366;5.212;2023-05-10T13:27:55;3.08;;;2.78;;
55692;SDS011;41590;53.366;5.212;2023-05-10T13:33:24;8.57;;;3.20;;
55692;SDS011;41590;53.366;5.212;2023-05-10T13:38:45;3.08;;;2.78;;
55692;SDS011;41590;53.366;5.212;2023-05-10T13:44:07;2.55;;;2.35;;
55692;SDS011;41590;53.366;5.212;2023-05-10T13:49:21;2.55;;;2.35;;
55692;SDS011;41590;53.366;5.212;2023-05-10T13:52:01;2.65;;;2.45;;
55692;SDS011;41590;53.366;5.212;2023-05-10T13:54:41;3.28;;;2.25;;
55692;SDS011;41590;53.366;5.212;2023-05-10T13:57:10;3.88;;;2.35;;
55692;SDS011;41590;53.366;5.212;2023-05-10T13:59:43;5.20;;;2.53;;
55692;SDS011;41590;53.366;5.212;2023-05-10T14:02:26;3.97;;;2.47;;
55692;SDS011;41590;53.366;5.212;2023-05-10T14:07:56;2.17;;;1.88;;
55692;SDS011;41590;53.366;5.212;2023-05-10T14:16:46;10.77;;;3.03;;
55692;SDS011;41590;53.366;5.212;2023-05-10T14:19:20;6.05;;;2.47;;
55692;SDS011;41590;53.366;5.212;2023-05-10T14:21:54;4.18;;;2.70;;
55692;SDS011;41590;53.366;5.212;2023-05-10T14:33:23;2.60;;;2.40;;
55692;SDS011;41590;53.366;5.212;2023-05-10T14:36:15;6.70;;;2.63;;
55692;SDS011;41590;53.366;5.212;2023-05-10T14:41:48;3.75;;;2.35;;
55692;SDS011;41590;53.366;5.212;2023-05-10T14:46:57;3.20;;;2.05;;
55692;SDS011;41590;53.366;5.212;2023-05-10T14:49:25;2.30;;;2.10;;
55692;SDS011;41590;53.366;5.212;2023-05-10T14:52:01;9.02;;;2.40;;
55692;SDS011;41590;53.366;5.212;2023-05-10T14:57:13;6.18;;;3.05;;
55692;SDS011;41590;53.366;5.212;2023-05-10T14:59:41;6.70;;;2.85;;
55692;SDS011;41590;53.366;5.212;2023-05-10T15:02:12;2.08;;;1.90;;
55692;SDS011;41590;53.366;5.212;2023-05-10T15:04:42;3.75;;;2.25;;
55692;SDS011;41590;53.366;5.212;2023-05-10T15:07:12;2.38;;;1.90;;
55692;SDS011;41590;53.366;5.212;2023-05-10T15:09:49;2.35;;;2.15;;
55692;SDS011;41590;53.366;5.212;2023-05-10T15:12:27;4.03;;;2.20;;
55692;SDS011;41590;53.366;5.212;2023-05-10T15:15:08;3.47;;;2.00;;
55692;SDS011;41590;53.366;5.212;2023-05-10T15:20:05;6.65;;;1.48;;
55692;SDS011;41590;53.366;5.212;2023-05-10T15:22:49;2.70;;;1.90;;
55692;SDS011;41590;53.366;5.212;2023-05-10T15:25:15;9.57;;;1.52;;
55692;SDS011;41590;53.366;5.212;2023-05-10T15:27:44;2.10;;;1.88;;
55692;SDS011;41590;53.366;5.212;2023-05-10T15:30:10;8.00;;;2.00;;
55692;SDS011;41590;53.366;5.212;2023-05-10T15:32:39;1.85;;;1.52;;
55692;SDS011;41590;53.366;5.212;2023-05-10T15:35:07;3.25;;;1.42;;
55692;SDS011;41590;53.366;5.212;2023-05-10T15:37:35;2.10;;;1.42;;
55692;SDS011;41590;53.366;5.212;2023-05-10T15:40:03;2.85;;;1.50;;
55692;SDS011;41590;53.366;5.212;2023-05-10T15:42:36;15.88;;;2.35;;
55692;SDS011;41590;53.366;5.212;2023-05-10T15:45:05;2.05;;;1.80;;
55692;SDS011;41590;53.366;5.212;2023-05-10T15:47:35;18.40;;;2.60;;
55692;SDS011;41590;53.366;5.212;2023-05-10T15:50:13;2.92;;;2.22;;
55692;SDS011;41590;53.366;5.212;2023-05-10T15:52:45;3.22;;;2.20;;
55692;SDS011;41590;53.366;5.212;2023-05-10T15:58:02;3.00;;;1.80;;
55692;SDS011;41590;53.366;5.212;2023-05-10T16:00:28;4.80;;;1.88;;
55692;SDS011;41590;53.366;5.212;2023-05-10T16:02:57;7.60;;;1.55;;
55692;SDS011;41590;53.366;5.212;2023-05-10T16:05:23;2.97;;;1.30;;
55692;SDS011;41590;53.366;5.212;2023-05-10T16:08:00;7.88;;;1.10;;
55692;SDS011;41590;53.366;5.212;2023-05-10T16:13:52;1.63;;;1.17;;
55692;SDS011;41590;53.366;5.212;2023-05-10T16:16:39;1.52;;;1.20;;
55692;SDS011;41590;53.366;5.212;2023-05-10T16:19:09;2.22;;;1.10;;
55692;SDS011;41590;53.366;5.212;2023-05-10T16:21:47;1.63;;;1.00;;
55692;SDS011;41590;53.366;5.212;2023-05-10T16:24:20;0.88;;;0.80;;
55692;SDS011;41590;53.366;5.212;2023-05-10T16:26:46;2.05;;;0.90;;
55692;SDS011;41590;53.366;5.212;2023-05-10T16:29:14;1.67;;;0.98;;
55692;SDS011;41590;53.366;5.212;2023-05-10T16:31:42;0.70;;;0.70;;
55692;SDS011;41590;53.366;5.212;2023-05-10T16:34:17;0.90;;;0.60;;
55692;SDS011;41590;53.366;5.212;2023-05-10T16:36:49;8.55;;;1.30;;
55692;SDS011;41590;53.366;5.212;2023-05-10T16:42:47;1.77;;;0.95;;
55692;SDS011;41590;53.366;5.212;2023-05-10T16:45:14;2.55;;;2.00;;
55692;SDS011;41590;53.366;5.212;2023-05-10T16:47:47;16.10;;;1.67;;
55692;SDS011;41590;53.366;5.212;2023-05-10T16:50:17;7.70;;;1.58;;
55692;SDS011;41590;53.366;5.212;2023-05-10T16:55:51;10.63;;;1.58;;
55692;SDS011;41590;53.366;5.212;2023-05-10T16:58:17;2.15;;;1.40;;
55692;SDS011;41590;53.366;5.212;2023-05-10T17:00:43;2.40;;;1.20;;
55692;SDS011;41590;53.366;5.212;2023-05-10T17:03:11;1.67;;;1.30;;
55692;SDS011;41590;53.366;5.212;2023-05-10T17:05:37;2.13;;;1.35;;
55692;SDS011;41590;53.366;5.212;2023-05-10T17:08:05;2.85;;;1.30;;
55692;SDS011;41590;53.366;5.212;2023-05-10T17:13:42;2.72;;;1.00;;
55692;SDS011;41590;53.366;5.212;2023-05-10T17:16:08;5.63;;;1.33;;
55692;SDS011;41590;53.366;5.212;2023-05-10T17:21:21;5.22;;;1.27;;
55692;SDS011;41590;53.366;5.212;2023-05-10T17:26:17;9.52;;;1.60;;
55692;SDS011;41590;53.366;5.212;2023-05-10T17:28:44;4.40;;;2.03;;
55692;SDS011;41590;53.366;5.212;2023-05-10T17:31:11;21.85;;;2.25;;
55692;SDS011;41590;53.366;5.212;2023-05-10T17:33:39;13.55;;;2.83;;
55692;SDS011;41590;53.366;5.212;2023-05-10T17:36:05;11.65;;;1.65;;
55692;SDS011;41590;53.366;5.212;2023-05-10T17:38:31;2.90;;;1.50;;
55692;SDS011;41590;53.366;5.212;2023-05-10T17:40:57;8.93;;;3.22;;
55692;SDS011;41590;53.366;5.212;2023-05-10T17:43:23;5.13;;;2.28;;
55692;SDS011;41590;53.366;5.212;2023-05-10T17:45:56;3.00;;;2.20;;
55692;SDS011;41590;53.366;5.212;2023-05-10T17:48:22;14.57;;;6.05;;
55692;SDS011;41590;53.366;5.212;2023-05-10T17:50:54;2.83;;;2.20;;
55692;SDS011;41590;53.366;5.212;2023-05-10T17:53:21;7.35;;;2.13;;
55692;SDS011;41590;53.366;5.212;2023-05-10T17:55:50;2.92;;;2.00;;
55692;SDS011;41590;53.366;5.212;2023-05-10T17:58:17;3.05;;;1.60;;
55692;SDS011;41590;53.366;5.212;2023-05-10T18:00:59;1.98;;;1.73;;
55692;SDS011;41590;53.366;5.212;2023-05-10T18:03:25;2.67;;;1.30;;
55692;SDS011;41590;53.366;5.212;2023-05-10T18:08:20;1.38;;;1.27;;
55692;SDS011;41590;53.366;5.212;2023-05-10T18:10:53;2.67;;;1.88;;
55692;SDS011;41590;53.366;5.212;2023-05-10T18:13:20;5.55;;;1.85;;
55692;SDS011;41590;53.366;5.212;2023-05-10T18:18:21;5.88;;;1.20;;
55692;SDS011;41590;53.366;5.212;2023-05-10T18:20:48;1.90;;;1.60;;
55692;SDS011;41590;53.366;5.212;2023-05-10T18:23:26;1.65;;;1.35;;
55692;SDS011;41590;53.366;5.212;2023-05-10T18:25:52;4.07;;;1.60;;
55692;SDS011;41590;53.366;5.212;2023-05-10T18:28:19;3.13;;;1.45;;
55692;SDS011;41590;53.366;5.212;2023-05-10T18:30:46;3.05;;;1.20;;
55692;SDS011;41590;53.366;5.212;2023-05-10T18:33:13;3.25;;;1.48;;
55692;SDS011;41590;53.366;5.212;2023-05-10T18:35:39;5.60;;;1.42;;
55692;SDS011;41590;53.366;5.212;2023-05-10T18:38:05;2.08;;;1.58;;
55692;SDS011;41590;53.366;5.212;2023-05-10T18:40:34;4.55;;;1.40;;
55692;SDS011;41590;53.366;5.212;2023-05-10T18:43:01;4.32;;;1.58;;
55692;SDS011;41590;53.366;5.212;2023-05-10T18:45:28;4.13;;;1.50;;
55692;SDS011;41590;53.366;5.212;2023-05-10T18:47:55;1.63;;;1.52;;
55692;SDS011;41590;53.366;5.212;2023-05-10T18:50:21;2.67;;;1.40;;
55692;SDS011;41590;53.366;5.212;2023-05-10T18:52:46;1.65;;;1.23;;
55692;SDS011;41590;53.366;5.212;2023-05-10T18:55:14;3.75;;;1.00;;
55692;SDS011;41590;53.366;5.212;2023-05-10T18:57:40;3.67;;;1.33;;
55692;SDS011;41590;53.366;5.212;2023-05-10T19:00:08;8.40;;;1.50;;
55692;SDS011;41590;53.366;5.212;2023-05-10T19:02:36;9.05;;;1.50;;
55692;SDS011;41590;53.366;5.212;2023-05-10T19:05:02;11.18;;;1.50;;
55692;SDS011;41590;53.366;5.212;2023-05-10T19:07:28;6.25;;;1.52;;
55692;SDS011;41590;53.366;5.212;2023-05-10T19:09:55;14.85;;;4.95;;
55692;SDS011;41590;53.366;5.212;2023-05-10T19:14:52;4.40;;;2.05;;
55692;SDS011;41590;53.366;5.212;2023-05-10T19:17:25;6.38;;;1.55;;
55692;SDS011;41590;53.366;5.212;2023-05-10T19:19:53;7.28;;;4.30;;
55692;SDS011;41590;53.366;5.212;2023-05-10T19:22:22;9.52;;;2.45;;
55692;SDS011;41590;53.366;5.212;2023-05-10T19:24:48;3.63;;;2.13;;
55692;SDS011;41590;53.366;5.212;2023-05-10T19:27:20;190.90;;;6.07;;
55692;SDS011;41590;53.366;5.212;2023-05-10T19:29:52;83.63;;;4.53;;
55692;SDS011;41590;53.366;5.212;2023-05-10T19:32:17;3.65;;;2.53;;
55692;SDS011;41590;53.366;5.212;2023-05-10T19:34:45;11.15;;;2.42;;
55692;SDS011;41590;53.366;5.212;2023-05-10T19:37:11;11.27;;;1.48;;
55692;SDS011;41590;53.366;5.212;2023-05-10T19:42:58;28.17;;;10.13;;
55692;SDS011;41590;53.366;5.212;2023-05-10T19:54:00;14.20;;;3.90;;
55692;SDS011;41590;53.366;5.212;2023-05-10T19:56:28;24.75;;;3.95;;
55692;SDS011;41590;53.366;5.212;2023-05-10T19:58:54;19.08;;;3.38;;
55692;SDS011;41590;53.366;5.212;2023-05-10T20:01:22;11.38;;;2.60;;
55692;SDS011;41590;53.366;5.212;2023-05-10T20:04:01;15.40;;;2.75;;
55692;SDS011;41590;53.366;5.212;2023-05-10T20:06:29;45.35;;;3.20;;
55692;SDS011;41590;53.366;5.212;2023-05-10T20:08:56;18.40;;;3.22;;
55692;SDS011;41590;53.366;5.212;2023-05-10T20:11:22;25.83;;;5.38;;
55692;SDS011;41590;53.366;5.212;2023-05-10T20:16:21;165.45;;;5.05;;
55692;SDS011;41590;53.366;5.212;2023-05-10T20:18:59;62.10;;;4.22;;
55692;SDS011;41590;53.366;5.212;2023-05-10T20:21:31;67.85;;;11.18;;
55692;SDS011;41590;53.366;5.212;2023-05-10T20:23:57;36.58;;;3.65;;
55692;SDS011;41590;53.366;5.212;2023-05-10T20:26:25;77.05;;;3.90;;
55692;SDS011;41590;53.366;5.212;2023-05-10T20:28:51;81.90;;;4.38;;
55692;SDS011;41590;53.366;5.212;2023-05-10T20:39:16;54.38;;;3.72;;
55692;SDS011;41590;53.366;5.212;2023-05-10T20:44:47;24.50;;;2.50;;
55692;SDS011;41590;53.366;5.212;2023-05-10T20:50:43;65.25;;;4.63;;
55692;SDS011;41590;53.366;5.212;2023-05-10T20:55:40;70.85;;;4.63;;
55692;SDS011;41590;53.366;5.212;2023-05-10T21:00:44;32.63;;;5.22;;
55692;SDS011;41590;53.366;5.212;2023-05-10T21:03:12;79.82;;;3.50;;
55692;SDS011;41590;53.366;5.212;2023-05-10T21:05:47;20.15;;;3.47;;
55692;SDS011;41590;53.366;5.212;2023-05-10T21:13:38;61.63;;;4.20;;
55692;SDS011;41590;53.366;5.212;2023-05-10T21:16:04;82.72;;;14.82;;
55692;SDS011;41590;53.366;5.212;2023-05-10T21:18:30;31.77;;;13.15;;
55692;SDS011;41590;53.366;5.212;2023-05-10T21:20:58;106.75;;;6.32;;
55692;SDS011;41590;53.366;5.212;2023-05-10T21:23:25;51.25;;;4.22;;
55692;SDS011;41590;53.366;5.212;2023-05-10T21:25:51;80.82;;;4.28;;
55692;SDS011;41590;53.366;5.212;2023-05-10T21:28:30;30.75;;;4.45;;
55692;SDS011;41590;53.366;5.212;2023-05-10T21:30:58;35.10;;;4.38;;
55692;SDS011;41590;53.366;5.212;2023-05-10T21:33:25;25.30;;;4.18;;
55692;SDS011;41590;53.366;5.212;2023-05-10T21:35:51;23.55;;;3.35;;
55692;SDS011;41590;53.366;5.212;2023-05-10T21:38:16;79.10;;;4.40;;
55692;SDS011;41590;53.366;5.212;2023-05-10T21:40:45;104.38;;;5.22;;
55692;SDS011;41590;53.366;5.212;2023-05-10T21:52:51;23.20;;;3.13;;
55692;SDS011;41590;53.366;5.212;2023-05-10T21:57:57;100.10;;;4.72;;
55692;SDS011;41590;53.366;5.212;2023-05-10T22:00:41;161.13;;;6.03;;
55692;SDS011;41590;53.366;5.212;2023-05-10T22:03:10;78.75;;;4.25;;
55692;SDS011;41590;53.366;5.212;2023-05-10T22:05:36;91.75;;;4.50;;
55692;SDS011;41590;53.366;5.212;2023-05-10T22:08:12;32.00;;;3.90;;
55692;SDS011;41590;53.366;5.212;2023-05-10T22:13:14;24.52;;;3.42;;
55692;SDS011;41590;53.366;5.212;2023-05-10T22:15:40;39.07;;;4.37;;
55692;SDS011;41590;53.366;5.212;2023-05-10T22:18:25;55.20;;;4.55;;
55692;SDS011;41590;53.366;5.212;2023-05-10T22:20:52;45.42;;;4.88;;
55692;SDS011;41590;53.366;5.212;2023-05-10T22:23:18;24.52;;;4.45;;
55692;SDS011;41590;53.366;5.212;2023-05-10T22:28:51;29.52;;;4.32;;
55692;SDS011;41590;53.366;5.212;2023-05-10T22:31:34;24.85;;;4.45;;
55692;SDS011;41590;53.366;5.212;2023-05-10T22:34:06;85.82;;;6.80;;
55692;SDS011;41590;53.366;5.212;2023-05-10T22:36:38;82.80;;;6.15;;
55692;SDS011;41590;53.366;5.212;2023-05-10T22:41:49;40.42;;;5.00;;
55692;SDS011;41590;53.366;5.212;2023-05-10T22:44:15;96.88;;;6.78;;
55692;SDS011;41590;53.366;5.212;2023-05-10T22:46:43;45.28;;;4.97;;
55692;SDS011;41590;53.366;5.212;2023-05-10T22:49:10;61.00;;;5.93;;
55692;SDS011;41590;53.366;5.212;2023-05-10T22:51:37;68.88;;;6.30;;
55692;SDS011;41590;53.366;5.212;2023-05-10T22:54:04;192.60;;;9.77;;
55692;SDS011;41590;53.366;5.212;2023-05-10T22:56:32;58.17;;;6.88;;
55692;SDS011;41590;53.366;5.212;2023-05-10T22:59:03;63.08;;;6.68;;
55692;SDS011;41590;53.366;5.212;2023-05-10T23:01:39;45.67;;;6.20;;
55692;SDS011;41590;53.366;5.212;2023-05-10T23:04:12;78.18;;;7.00;;
55692;SDS011;41590;53.366;5.212;2023-05-10T23:06:50;69.23;;;6.50;;
55692;SDS011;41590;53.366;5.212;2023-05-10T23:12:22;62.05;;;6.68;;
55692;SDS011;41590;53.366;5.212;2023-05-10T23:15:07;129.98;;;9.27;;
55692;SDS011;41590;53.366;5.212;2023-05-10T23:20:17;48.13;;;7.33;;
55692;SDS011;41590;53.366;5.212;2023-05-10T23:26:05;40.13;;;7.82;;
55692;SDS011;41590;53.366;5.212;2023-05-10T23:28:32;33.53;;;7.82;;
55692;SDS011;41590;53.366;5.212;2023-05-10T23:31:04;9.52;;;5.20;;
55692;SDS011;41590;53.366;5.212;2023-05-10T23:33:31;24.48;;;7.82;;
55692;SDS011;41590;53.366;5.212;2023-05-10T23:44:21;37.85;;;7.65;;
55692;SDS011;41590;53.366;5.212;2023-05-10T23:49:18;29.90;;;6.97;;
55692;SDS011;41590;53.366;5.212;2023-05-10T23:57:36;46.10;;;7.78;;
